createdAt,value
2023-01-11T00:01:23.950Z,100617.00
2023-01-11T00:03:58.512Z,100604.56
2023-01-11T00:06:26.925Z,100604.75
2023-01-11T00:08:56.245Z,100605.69
2023-01-11T00:11:24.531Z,100615.13
2023-01-11T00:13:52.819Z,100598.50
2023-01-11T00:16:24.319Z,100582.63
2023-01-11T00:18:58.974Z,100587.28
2023-01-11T00:21:27.966Z,100580.25
2023-01-11T00:23:56.494Z,100580.25
2023-01-11T00:26:27.292Z,100565.25
2023-01-11T00:28:55.651Z,100574.00
2023-01-11T00:31:25.259Z,100558.78
2023-01-11T00:33:55.100Z,100554.41
2023-01-11T00:36:23.404Z,100553.47
2023-01-11T00:38:54.093Z,100541.75
2023-01-11T00:41:41.822Z,100548.00
2023-01-11T00:44:30.046Z,100539.44
2023-01-11T00:47:16.654Z,100524.44
2023-01-11T00:49:46.526Z,100522.63
2023-01-11T00:52:14.910Z,100525.53
2023-01-11T00:54:44.029Z,100522.88
2023-01-11T00:57:12.322Z,100502.22
2023-01-11T00:59:40.779Z,100500.50
2023-01-11T01:02:10.274Z,100504.78
2023-01-11T01:04:39.971Z,100500.16
2023-01-11T01:07:09.927Z,100492.25
2023-01-11T01:09:38.477Z,100515.16
2023-01-11T01:12:09.352Z,100495.56
2023-01-11T01:14:37.099Z,100483.84
2023-01-11T01:17:09.722Z,100475.75
2023-01-11T01:19:39.852Z,100480.22
2023-01-11T01:22:09.532Z,100480.88
2023-01-11T01:24:38.159Z,100471.09
2023-01-11T01:27:06.495Z,100467.13
2023-01-11T01:29:34.774Z,100467.03
2023-01-11T01:32:03.078Z,100455.44
2023-01-11T01:34:31.342Z,100479.13
2023-01-11T01:36:59.643Z,100461.44
2023-01-11T01:39:34.034Z,100453.25
2023-01-11T01:42:02.376Z,100461.44
2023-01-11T01:44:59.458Z,100456.28
2023-01-11T01:47:41.526Z,100453.47
2023-01-11T01:50:21.614Z,100462.19
2023-01-11T01:52:57.801Z,100452.91
2023-01-11T01:55:34.769Z,100452.91
2023-01-11T01:58:07.266Z,100445.66
2023-01-11T02:00:35.703Z,100425.72
2023-01-11T02:03:06.621Z,100424.94
2023-01-11T02:05:34.954Z,100418.81
2023-01-11T02:08:10.685Z,100409.13
2023-01-11T02:10:41.285Z,100405.50
2023-01-11T02:13:14.491Z,100407.59
2023-01-11T02:15:43.038Z,100417.44
2023-01-11T02:18:14.842Z,100397.97
2023-01-11T02:21:06.633Z,100391.72
2023-01-11T02:24:16.608Z,100389.22
2023-01-11T02:27:29.632Z,100391.31
2023-01-11T02:30:18.438Z,100383.91
2023-01-11T02:32:59.737Z,100378.59
2023-01-11T02:35:47.465Z,100364.34
2023-01-11T02:38:30.642Z,100367.00
2023-01-11T02:41:14.506Z,100357.31
2023-01-11T02:44:08.503Z,100374.88
2023-01-11T02:46:48.404Z,100367.94
2023-01-11T02:49:29.577Z,100364.88
2023-01-11T02:52:07.545Z,100368.88
2023-01-11T02:54:40.387Z,100360.41
2023-01-11T02:57:12.797Z,100357.09
2023-01-11T02:59:42.792Z,100374.00
2023-01-11T03:02:14.674Z,100339.78
2023-01-11T03:04:43.358Z,100332.75
2023-01-11T03:07:39.851Z,100331.81
2023-01-11T03:10:24.985Z,100312.97
2023-01-11T03:13:10.176Z,100311.38
2023-01-11T03:16:19.581Z,100283.41
2023-01-11T03:19:03.899Z,100310.03
2023-01-11T03:21:55.420Z,100315.16
2023-01-11T03:24:34.867Z,100293.22
2023-01-11T03:27:21.940Z,100294.06
2023-01-11T03:30:01.015Z,100291.41
2023-01-11T03:32:51.193Z,100300.16
2023-01-11T03:35:31.992Z,100287.06
2023-01-11T03:38:07.033Z,100285.78
2023-01-11T03:40:42.679Z,100297.50
2023-01-11T03:43:15.813Z,100291.94
2023-01-11T03:45:53.349Z,100276.63
2023-01-11T03:48:26.511Z,100271.84
2023-01-11T03:50:59.030Z,100273.47
2023-01-11T03:53:30.010Z,100279.66
2023-01-11T03:56:02.532Z,100262.16
2023-01-11T03:58:30.875Z,100276.41
2023-01-11T04:01:00.489Z,100251.41
2023-01-11T04:03:29.385Z,100256.19
2023-01-11T04:06:05.222Z,100269.91
2023-01-11T04:08:33.534Z,100258.09
2023-01-11T04:11:04.381Z,100258.09
2023-01-11T04:13:34.175Z,100263.22
2023-01-11T04:16:02.791Z,100255.53
2023-01-11T04:18:31.112Z,100229.56
2023-01-11T04:21:00.812Z,100249.38
2023-01-11T04:23:29.136Z,100228.50
2023-01-11T04:25:57.420Z,100250.91
2023-01-11T04:28:25.717Z,100253.88
2023-01-11T04:30:54.586Z,100256.34
2023-01-11T04:33:22.942Z,100238.75
2023-01-11T04:35:51.233Z,100246.00
2023-01-11T04:38:24.033Z,100240.69
2023-01-11T04:41:13.970Z,100240.25
2023-01-11T04:43:41.522Z,100219.69
2023-01-11T04:46:10.975Z,100216.06
2023-01-11T04:48:39.747Z,100230.56
2023-01-11T04:51:09.217Z,100212.66
2023-01-11T04:53:39.145Z,100237.25
2023-01-11T04:56:09.205Z,100207.53
2023-01-11T04:58:38.376Z,100200.84
2023-01-11T05:01:11.539Z,100210.53
2023-01-11T05:03:39.979Z,100221.28
2023-01-11T05:06:09.226Z,100201.88
2023-01-11T05:08:39.293Z,100217.00
2023-01-11T05:11:09.636Z,100219.81
2023-01-11T05:13:44.046Z,100215.84
2023-01-11T05:16:15.111Z,100202.31
2023-01-11T05:18:45.626Z,100214.47
2023-01-11T05:21:17.218Z,100199.97
2023-01-11T05:23:47.905Z,100166.09
2023-01-11T05:26:19.376Z,100217.22
2023-01-11T05:28:48.313Z,100223.19
2023-01-11T05:31:17.277Z,100202.63
2023-01-11T05:33:45.846Z,100205.06
2023-01-11T05:36:17.229Z,100199.75
2023-01-11T05:38:50.242Z,100194.13
2023-01-11T05:41:20.532Z,100202.72
2023-01-11T05:44:08.380Z,100213.81
2023-01-11T05:46:41.053Z,100235.88
2023-01-11T05:49:11.218Z,100220.44
2023-01-11T05:51:40.521Z,100165.53
2023-01-11T05:54:14.683Z,100217.22
2023-01-11T05:56:43.747Z,100220.34
2023-01-11T05:59:12.671Z,100206.16
2023-01-11T06:01:41.196Z,100217.66
2023-01-11T06:04:09.599Z,100203.59
2023-01-11T06:06:38.156Z,100205.81
2023-01-11T06:09:06.637Z,100203.78
2023-01-11T06:11:36.285Z,100216.91
2023-01-11T06:14:04.564Z,100201.66
2023-01-11T06:16:32.925Z,100199.63
2023-01-11T06:19:01.224Z,100206.78
2023-01-11T06:21:29.482Z,100212.00
2023-01-11T06:23:57.759Z,100213.59
2023-01-11T06:26:26.107Z,100211.47
2023-01-11T06:28:55.716Z,100210.59
2023-01-11T06:31:24.078Z,100208.66
2023-01-11T06:33:52.398Z,100209.41
2023-01-11T06:36:20.841Z,100209.94
2023-01-11T06:38:49.083Z,100212.50
2023-01-11T06:41:17.393Z,100209.50
2023-01-11T06:43:46.541Z,100208.53
2023-01-11T06:46:17.535Z,100217.63
2023-01-11T06:48:46.429Z,100210.25
2023-01-11T06:51:16.727Z,100197.78
2023-01-11T06:53:46.456Z,100214.81
2023-01-11T06:56:19.033Z,100212.72
2023-01-11T06:58:48.793Z,100215.28
2023-01-11T07:01:20.233Z,100210.59
2023-01-11T07:03:48.758Z,100201.63
2023-01-11T07:06:17.082Z,100199.06
2023-01-11T07:08:45.465Z,100213.34
2023-01-11T07:11:14.006Z,100204.59
2023-01-11T07:13:42.518Z,100212.06
2023-01-11T07:16:10.859Z,100222.72
2023-01-11T07:18:40.575Z,100206.28
2023-01-11T07:21:08.979Z,100221.44
2023-01-11T07:23:37.244Z,100217.19
2023-01-11T07:26:05.798Z,100216.00
2023-01-11T07:28:34.130Z,100215.88
2023-01-11T07:31:02.653Z,100225.47
2023-01-11T07:33:33.933Z,100217.47
2023-01-11T07:36:05.532Z,100224.50
2023-01-11T07:38:33.992Z,100209.88
2023-01-11T07:41:22.460Z,100213.19
2023-01-11T07:43:49.781Z,100224.56
2023-01-11T07:46:18.704Z,100228.84
2023-01-11T07:48:46.973Z,100234.13
2023-01-11T07:51:18.112Z,100236.91
2023-01-11T07:53:46.375Z,100236.81
2023-01-11T07:56:14.742Z,100227.59
2023-01-11T07:58:46.803Z,100249.03
2023-01-11T08:01:15.444Z,100242.75
2023-01-11T08:03:44.402Z,100244.34
2023-01-11T08:06:14.876Z,100239.97
2023-01-11T08:08:46.737Z,100237.81
2023-01-11T08:11:33.032Z,100246.69
2023-01-11T08:14:19.161Z,100250.00
2023-01-11T08:16:48.216Z,100243.66
2023-01-11T08:19:17.151Z,100243.66
2023-01-11T08:21:45.960Z,100240.03
2023-01-11T08:24:17.924Z,100250.50
2023-01-11T08:26:47.376Z,100246.88
2023-01-11T08:29:16.877Z,100250.16
2023-01-11T08:31:46.104Z,100253.78
2023-01-11T08:34:16.012Z,100257.09
2023-01-11T08:36:45.480Z,100262.19
2023-01-11T08:39:15.654Z,100258.31
2023-01-11T08:41:44.000Z,100269.72
2023-01-11T08:44:15.010Z,100267.06
2023-01-11T08:46:44.016Z,100253.63
2023-01-11T08:49:13.323Z,100256.16
2023-01-11T08:51:43.131Z,100256.69
2023-01-11T08:54:17.826Z,100248.22
2023-01-11T08:56:46.733Z,100246.25
2023-01-11T08:59:15.552Z,100258.63
2023-01-11T09:01:44.615Z,100269.97
2023-01-11T09:04:24.145Z,100267.78
2023-01-11T09:06:54.547Z,100272.50
2023-01-11T09:09:25.149Z,100282.97
2023-01-11T09:11:57.475Z,100271.81
2023-01-11T09:14:28.909Z,100279.81
2023-01-11T09:16:58.493Z,100289.75
2023-01-11T09:19:27.358Z,100283.34
2023-01-11T09:22:00.838Z,100272.66
2023-01-11T09:24:31.518Z,100268.78
2023-01-11T09:27:00.764Z,100276.97
2023-01-11T09:29:29.380Z,100277.69
2023-01-11T09:31:57.751Z,100276.72
2023-01-11T09:34:27.414Z,100275.75
2023-01-11T09:36:57.601Z,100287.03
2023-01-11T09:39:27.746Z,100296.69
2023-01-11T09:42:31.702Z,100292.31
2023-01-11T09:45:09.063Z,100298.28
2023-01-11T09:47:45.922Z,100286.75
2023-01-11T09:50:20.609Z,100280.91
2023-01-11T09:52:53.435Z,100278.13
2023-01-11T09:55:33.893Z,100290.53
2023-01-11T09:58:26.225Z,100287.50
2023-01-11T10:01:06.957Z,100297.72
2023-01-11T10:04:06.377Z,100296.72
2023-01-11T10:06:50.223Z,100299.75
2023-01-11T10:18:27.831Z,100282.25
2023-01-11T10:19:18.099Z,100266.81
2023-01-11T10:21:47.551Z,100286.06
2023-01-11T10:24:29.022Z,100292.59
2023-01-11T10:27:03.894Z,100270.63
2023-01-11T10:29:49.830Z,100262.97
2023-01-11T10:32:45.904Z,100272.81
2023-01-11T10:35:41.275Z,100269.06
2023-01-11T10:38:42.787Z,100269.16
2023-01-11T10:41:26.448Z,100272.09
2023-01-11T10:44:17.492Z,100272.34
2023-01-11T10:46:52.208Z,100268.44
2023-01-11T10:49:41.215Z,100271.00
2023-01-11T10:52:32.711Z,100273.06
2023-01-11T10:55:03.105Z,100274.50
2023-01-11T10:58:01.513Z,100283.38
2023-01-11T11:00:42.467Z,100282.78
2023-01-11T11:03:46.263Z,100283.75
2023-01-11T11:06:33.581Z,100281.94
2023-01-11T11:09:13.949Z,100286.44
2023-01-11T11:11:53.317Z,100281.09
2023-01-11T11:14:31.750Z,100280.94
2023-01-11T11:17:14.568Z,100288.13
2023-01-11T11:19:43.115Z,100285.81
2023-01-11T11:22:13.535Z,100285.94
2023-01-11T11:24:50.005Z,100278.75
2023-01-11T11:27:27.529Z,100280.59
2023-01-11T11:29:58.952Z,100280.94
2023-01-11T11:32:31.395Z,100287.50
2023-01-11T11:34:59.876Z,100287.03
2023-01-11T11:37:35.534Z,100286.56
2023-01-11T11:40:05.483Z,100287.88
2023-01-11T11:42:34.070Z,100290.44
2023-01-11T11:45:19.389Z,100292.28
2023-01-11T11:48:06.505Z,100297.88
2023-01-11T11:50:44.650Z,100280.72
2023-01-11T11:53:25.969Z,100280.72
2023-01-11T11:55:55.647Z,100272.31
2023-01-11T11:58:27.899Z,100270.72
2023-01-11T12:00:56.260Z,100267.81
2023-01-11T12:03:30.630Z,100271.47
2023-01-11T12:06:03.066Z,100268.88
2023-01-11T12:08:35.517Z,100272.63
2023-01-11T12:11:08.048Z,100276.16
2023-01-11T12:13:44.797Z,100262.69
2023-01-11T12:16:23.430Z,100261.94
2023-01-11T12:18:52.861Z,100256.47
2023-01-11T12:21:24.204Z,100267.72
2023-01-11T12:24:17.230Z,100263.44
2023-01-11T12:27:02.501Z,100276.31
2023-01-11T12:29:56.010Z,100276.22
2023-01-11T12:33:14.314Z,100268.56
2023-01-11T12:35:55.935Z,100265.41
2023-01-11T12:38:40.777Z,100269.16
2023-01-11T12:41:50.251Z,100271.22
2023-01-11T12:45:02.911Z,100268.53
2023-01-11T12:48:11.491Z,100270.88
2023-01-11T12:50:56.271Z,100273.16
2023-01-11T12:53:51.915Z,100286.81
2023-01-11T12:56:59.946Z,100282.94
2023-01-11T13:00:09.545Z,100274.25
2023-01-11T13:03:14.161Z,100272.91
2023-01-11T13:06:02.756Z,100276.31
2023-01-11T13:08:49.039Z,100281.41
2023-01-11T13:11:38.138Z,100280.25
2023-01-11T13:14:31.186Z,100279.75
2023-01-11T13:17:19.224Z,100275.47
2023-01-11T13:20:03.608Z,100279.28
2023-01-11T13:22:38.500Z,100290.69
2023-01-11T13:25:23.086Z,100287.78
2023-01-11T13:27:53.768Z,100298.13
2023-01-11T13:30:25.378Z,100290.00
2023-01-11T13:33:00.282Z,100291.91
2023-01-11T13:35:41.320Z,100306.75
2023-01-11T13:38:29.871Z,100295.06
2023-01-11T13:41:09.345Z,100283.63
2023-01-11T13:43:46.157Z,100294.09
2023-01-11T13:46:28.879Z,100297.47
2023-01-11T13:49:04.060Z,100294.81
2023-01-11T13:51:42.473Z,100287.75
2023-01-11T13:54:16.846Z,100300.53
2023-01-11T13:56:56.846Z,100302.63
2023-01-11T13:59:34.022Z,100305.91
2023-01-11T14:02:18.499Z,100312.84
2023-01-11T14:04:53.976Z,100312.69
2023-01-11T14:07:36.039Z,100320.00
2023-01-11T14:10:31.524Z,100325.47
2023-01-11T14:13:58.424Z,100326.81
2023-01-11T14:16:43.901Z,100334.72
2023-01-11T14:19:26.862Z,100338.84
2023-01-11T14:22:20.926Z,100331.91
2023-01-11T14:24:59.481Z,100334.47
2023-01-11T14:27:55.989Z,100346.16
2023-01-11T14:30:49.277Z,100350.53
2023-01-11T14:34:25.909Z,100362.31
2023-01-11T14:37:34.149Z,100370.00
2023-01-11T14:40:35.803Z,100365.63
2023-01-11T14:43:37.984Z,100365.34
2023-01-11T14:46:46.662Z,100382.00
2023-01-11T14:49:31.015Z,100381.78
2023-01-11T14:52:09.118Z,100377.16
2023-01-11T14:54:42.678Z,100376.91
2023-01-11T14:57:39.718Z,100386.16
2023-01-11T15:01:06.395Z,100387.13
2023-01-11T15:03:48.125Z,100397.84
2023-01-11T15:06:20.518Z,100397.72
2023-01-11T15:08:53.500Z,100402.00
2023-01-11T15:11:36.921Z,100407.94
2023-01-11T15:14:29.507Z,100414.16
2023-01-11T15:17:19.702Z,100408.81
2023-01-11T15:19:50.326Z,100417.69
2023-01-11T15:22:30.235Z,100419.34
2023-01-11T15:25:06.579Z,100425.53
2023-01-11T15:27:38.874Z,100427.94
2023-01-11T15:30:29.957Z,100449.22
2023-01-11T15:33:29.130Z,100441.56
2023-01-11T15:36:06.828Z,100448.53
2023-01-11T15:38:42.949Z,100448.75
2023-01-11T15:41:37.230Z,100454.56
2023-01-11T15:44:35.243Z,100454.34
2023-01-11T15:47:47.845Z,100454.50
2023-01-11T15:50:51.354Z,100462.97
2023-01-11T15:54:08.042Z,100461.41
2023-01-11T15:57:02.738Z,100468.41
2023-01-11T15:59:57.082Z,100464.78
2023-01-11T16:03:21.080Z,100476.47
2023-01-11T16:06:02.184Z,100480.31
2023-01-11T16:08:43.979Z,100487.91
2023-01-11T16:11:26.664Z,100499.34
2023-01-11T16:14:27.663Z,100499.16
2023-01-11T16:16:57.714Z,100503.00
2023-01-11T16:19:32.058Z,100495.13
2023-01-11T16:22:05.755Z,100502.78
2023-01-11T16:24:44.907Z,100513.97
2023-01-11T16:27:23.768Z,100514.44
2023-01-11T16:29:54.704Z,100511.69
2023-01-11T16:32:27.017Z,100512.63
2023-01-11T16:34:56.128Z,100514.44
2023-01-11T16:37:30.991Z,100516.38
2023-01-11T16:40:09.309Z,100505.59
2023-01-11T16:42:44.809Z,100513.28
2023-01-11T16:45:22.601Z,100503.47
2023-01-11T16:48:15.857Z,100501.22
2023-01-11T16:50:57.799Z,100507.94
2023-01-11T16:53:28.583Z,100504.03
2023-01-11T16:56:05.131Z,100506.81
2023-01-11T16:58:36.708Z,100502.66
2023-01-11T17:01:09.109Z,100507.56
2023-01-11T17:03:43.272Z,100505.84
2023-01-11T17:06:20.592Z,100511.81
2023-01-11T17:08:52.638Z,100504.56
2023-01-11T17:11:29.307Z,100501.56
2023-01-11T17:14:43.137Z,100498.03
2023-01-11T17:17:14.937Z,100494.09
2023-01-11T17:19:49.948Z,100507.44
2023-01-11T17:22:23.714Z,100502.66
2023-01-11T17:24:56.331Z,100497.09
2023-01-11T17:27:33.150Z,100505.19
2023-01-11T17:30:03.503Z,100505.94
2023-01-11T17:32:42.331Z,100512.09
2023-01-11T17:35:18.633Z,100498.75
2023-01-11T17:37:50.343Z,100498.53
2023-01-11T17:40:25.883Z,100506.81
2023-01-11T17:43:18.690Z,100497.09
2023-01-11T17:45:51.071Z,100511.00
2023-01-11T17:48:21.255Z,100508.69
2023-01-11T17:50:54.522Z,100506.94
2023-01-11T17:53:26.969Z,100507.56
2023-01-11T17:55:58.165Z,100516.34
2023-01-11T17:58:28.609Z,100513.84
2023-01-11T18:01:21.379Z,100513.56
2023-01-11T18:03:54.984Z,100519.00
2023-01-11T18:06:32.970Z,100522.50
2023-01-11T18:09:03.988Z,100515.28
2023-01-11T18:11:36.910Z,100514.19
2023-01-11T18:14:18.324Z,100512.13
2023-01-11T18:16:59.681Z,100515.31
2023-01-11T18:19:40.604Z,100519.91
2023-01-11T18:22:30.593Z,100529.53
2023-01-11T18:25:00.645Z,100531.91
2023-01-11T18:27:33.048Z,100525.63
2023-01-11T18:30:06.588Z,100533.63
2023-01-11T18:32:42.132Z,100534.94
2023-01-11T18:35:19.059Z,100536.06
2023-01-11T18:37:48.194Z,100533.88
2023-01-11T18:40:19.342Z,100533.41
2023-01-11T18:42:50.767Z,100539.69
2023-01-11T18:45:20.351Z,100532.84
2023-01-11T18:47:48.686Z,100535.50
2023-01-11T18:50:19.711Z,100533.22
2023-01-11T18:52:48.123Z,100543.09
2023-01-11T18:55:17.111Z,100546.25
2023-01-11T18:57:47.438Z,100532.69
2023-01-11T19:00:18.702Z,100531.81
2023-01-11T19:02:47.382Z,100537.75
2023-01-11T19:05:19.779Z,100553.94
2023-01-11T19:07:49.792Z,100556.59
2023-01-11T19:10:22.084Z,100557.34
2023-01-11T19:12:52.112Z,100560.00
2023-01-11T19:15:20.392Z,100564.34
2023-01-11T19:17:49.156Z,100561.81
2023-01-11T19:20:19.056Z,100560.94
2023-01-11T19:22:47.415Z,100558.06
2023-01-11T19:25:15.918Z,100570.59
2023-01-11T19:27:44.756Z,100565.06
2023-01-11T19:30:14.806Z,100570.41
2023-01-11T19:32:43.203Z,100561.25
2023-01-11T19:35:11.810Z,100562.25
2023-01-11T19:37:41.496Z,100555.41
2023-01-11T19:40:11.838Z,100560.88
2023-01-11T19:42:40.295Z,100558.97
2023-01-11T19:45:10.260Z,100561.28
2023-01-11T19:47:39.702Z,100556.06
2023-01-11T19:50:09.218Z,100551.38
2023-01-11T19:52:37.544Z,100550.28
2023-01-11T19:55:08.103Z,100554.44
2023-01-11T19:57:36.784Z,100555.16
2023-01-11T20:00:06.374Z,100551.75
2023-01-11T20:02:34.717Z,100543.22
2023-01-11T20:05:03.171Z,100548.72
2023-01-11T20:07:31.472Z,100555.47
2023-01-11T20:09:59.983Z,100556.22
2023-01-11T20:12:31.468Z,100550.84
2023-01-11T20:15:01.272Z,100552.25
2023-01-11T20:17:29.894Z,100560.88
2023-01-11T20:19:58.174Z,100559.94
2023-01-11T20:22:26.594Z,100556.56
2023-01-11T20:24:56.040Z,100549.16
2023-01-11T20:27:24.343Z,100557.16
2023-01-11T20:29:53.994Z,100554.31
2023-01-11T20:32:40.491Z,100552.44
2023-01-11T20:35:11.549Z,100549.59
2023-01-11T20:37:39.978Z,100545.00
2023-01-11T20:40:11.847Z,100553.19
2023-01-11T20:42:41.638Z,100552.34
2023-01-11T20:45:12.608Z,100534.16
2023-01-11T20:47:41.114Z,100544.22
2023-01-11T20:50:11.116Z,100533.47
2023-01-11T20:52:39.957Z,100542.03
2023-01-11T20:55:09.983Z,100543.09
2023-01-11T20:57:38.269Z,100542.16
2023-01-11T21:02:42.175Z,100531.44
2023-01-11T21:05:11.660Z,100524.69
2023-01-11T21:07:40.330Z,100527.91
2023-01-11T21:10:10.577Z,100511.38
2023-01-11T21:15:10.518Z,100512.41
2023-01-11T21:17:40.803Z,100510.06
2023-01-11T21:20:11.169Z,100505.66
2023-01-11T21:22:39.467Z,100511.22
2023-01-11T21:25:09.752Z,100503.88
2023-01-11T21:27:39.146Z,100506.06
2023-01-11T21:30:09.336Z,100509.34
2023-01-11T21:32:39.572Z,100497.44
2023-01-11T21:35:09.070Z,100493.34
2023-01-11T21:37:37.600Z,100488.44
2023-01-11T21:40:07.377Z,100484.22
2023-01-11T21:42:35.687Z,100486.03
2023-01-11T21:45:05.353Z,100480.63
2023-01-11T21:47:33.624Z,100475.28
2023-01-11T21:50:03.311Z,100470.59
2023-01-11T21:52:31.571Z,100468.03
2023-01-11T21:55:12.022Z,100477.56
2023-01-11T21:57:40.453Z,100461.69
2023-01-11T22:00:11.015Z,100467.56
2023-01-11T22:02:39.531Z,100466.16
2023-01-11T22:05:10.832Z,100463.78
2023-01-11T22:07:41.309Z,100455.72
2023-01-11T22:10:12.345Z,100448.59
2023-01-11T22:12:40.705Z,100449.78
2023-01-11T22:15:10.958Z,100453.59
2023-01-11T22:17:39.243Z,100449.78
2023-01-11T22:20:11.053Z,100440.44
2023-01-11T22:22:39.500Z,100441.44
2023-01-11T22:25:09.064Z,100442.41
2023-01-11T22:27:37.359Z,100433.47
2023-01-11T22:30:06.950Z,100431.66
2023-01-11T22:32:35.224Z,100432.69
2023-01-11T22:35:03.550Z,100429.47
2023-01-11T22:37:33.216Z,100426.59
2023-01-11T22:40:01.917Z,100412.91
2023-01-11T22:42:30.487Z,100415.78
2023-01-11T22:44:58.787Z,100406.47
2023-01-11T22:47:27.133Z,100407.72
2023-01-11T22:49:56.817Z,100410.53
2023-01-11T22:52:25.105Z,100411.59
2023-01-11T22:54:55.388Z,100392.47
2023-01-11T22:57:23.615Z,100401.78
2023-01-11T22:59:51.889Z,100391.38
2023-01-11T23:02:20.146Z,100390.22
2023-01-11T23:04:48.445Z,100388.75
2023-01-11T23:07:16.706Z,100384.78
2023-01-11T23:09:44.964Z,100384.97
2023-01-11T23:12:32.044Z,100383.66
2023-01-11T23:15:00.290Z,100388.50
2023-01-11T23:17:28.580Z,100370.31
2023-01-11T23:19:56.876Z,100371.06
2023-01-11T23:22:25.149Z,100377.50
2023-01-11T23:24:53.480Z,100374.06
2023-01-11T23:27:23.132Z,100364.59
2023-01-11T23:29:51.415Z,100364.00
2023-01-11T23:32:19.676Z,100360.56
2023-01-11T23:34:47.945Z,100350.88
2023-01-11T23:37:16.859Z,100345.22
2023-01-11T23:39:45.150Z,100343.59
2023-01-11T23:42:27.811Z,100333.50
2023-01-11T23:44:58.692Z,100329.44
2023-01-11T23:47:29.533Z,100313.56
2023-01-11T23:50:01.247Z,100314.00
2023-01-11T23:52:32.198Z,100314.53
2023-01-11T23:55:01.375Z,100309.63
2023-01-11T23:57:29.733Z,100303.22
2023-01-11T23:59:59.376Z,100307.84
